sensor_id;sensor_type;location;lat;lon;timestamp;pressure;altitude;pressure_sealevel;temperature;humidity
78198;BME280;67472;51.554;7.812;2023-04-03T00:02:36;102133.56;;;0.89;100.00
78198;BME280;67472;51.554;7.812;2023-04-03T00:05:21;102132.59;;;0.93;100.00
78198;BME280;67472;51.554;7.812;2023-04-03T00:08:07;102140.44;;;0.92;100.00
78198;BME280;67472;51.554;7.812;2023-04-03T00:10:53;102137.78;;;0.93;100.00
78198;BME280;67472;51.554;7.812;2023-04-03T00:13:39;102142.97;;;0.95;100.00
78198;BME280;67472;51.554;7.812;2023-04-03T00:16:23;102142.97;;;0.93;100.00
78198;BME280;67472;51.554;7.812;2023-04-03T00:19:08;102142.06;;;0.96;100.00
78198;BME280;67472;51.554;7.812;2023-04-03T00:21:56;102142.16;;;0.93;100.00
78198;BME280;67472;51.554;7.812;2023-04-03T00:24:41;102139.63;;;0.90;100.00
78198;BME280;67472;51.554;7.812;2023-04-03T00:27:26;102143.03;;;0.90;100.00
78198;BME280;67472;51.554;7.812;2023-04-03T00:30:15;102131.13;;;0.79;100.00
78198;BME280;67472;51.554;7.812;2023-04-03T00:33:00;102123.66;;;0.64;100.00
78198;BME280;67472;51.554;7.812;2023-04-03T00:35:45;102135.13;;;0.52;100.00
78198;BME280;67472;51.554;7.812;2023-04-03T00:38:31;102132.53;;;0.52;100.00
78198;BME280;67472;51.554;7.812;2023-04-03T00:41:16;102144.63;;;0.53;100.00
78198;BME280;67472;51.554;7.812;2023-04-03T00:44:01;102138.41;;;0.62;100.00
78198;BME280;67472;51.554;7.812;2023-04-03T00:46:46;102143.50;;;0.68;100.00
78198;BME280;67472;51.554;7.812;2023-04-03T00:49:31;102145.88;;;0.80;100.00
78198;BME280;67472;51.554;7.812;2023-04-03T00:52:17;102159.63;;;0.86;100.00
78198;BME280;67472;51.554;7.812;2023-04-03T00:55:06;102157.78;;;0.91;100.00
78198;BME280;67472;51.554;7.812;2023-04-03T00:57:53;102160.38;;;0.93;100.00
78198;BME280;67472;51.554;7.812;2023-04-03T01:00:42;102149.97;;;0.91;100.00
78198;BME280;67472;51.554;7.812;2023-04-03T01:03:30;102149.16;;;0.88;100.00
78198;BME280;67472;51.554;7.812;2023-04-03T01:06:21;102146.56;;;0.89;100.00
78198;BME280;67472;51.554;7.812;2023-04-03T01:09:08;102144.88;;;0.85;100.00
78198;BME280;67472;51.554;7.812;2023-04-03T01:11:52;102148.34;;;0.86;100.00
78198;BME280;67472;51.554;7.812;2023-04-03T01:14:38;102144.03;;;0.85;100.00
78198;BME280;67472;51.554;7.812;2023-04-03T01:17:32;102151.81;;;0.85;100.00
78198;BME280;67472;51.554;7.812;2023-04-03T01:26:44;102153.81;;;0.72;100.00
78198;BME280;67472;51.554;7.812;2023-04-03T01:29:29;102150.31;;;0.75;100.00
78198;BME280;67472;51.554;7.812;2023-04-03T01:32:14;102144.25;;;0.74;100.00
78198;BME280;67472;51.554;7.812;2023-04-03T01:35:00;102146.03;;;0.71;100.00
78198;BME280;67472;51.554;7.812;2023-04-03T01:37:45;102146.13;;;0.66;100.00
78198;BME280;67472;51.554;7.812;2023-04-03T01:40:30;102142.88;;;0.53;100.00
78198;BME280;67472;51.554;7.812;2023-04-03T01:43:15;102144.38;;;0.18;100.00
78198;BME280;67472;51.554;7.812;2023-04-03T01:46:00;102148.16;;;0.00;100.00
78198;BME280;67472;51.554;7.812;2023-04-03T01:48:45;102149.03;;;-0.03;100.00
78198;BME280;67472;51.554;7.812;2023-04-03T01:51:30;102150.59;;;0.08;100.00
78198;BME280;67472;51.554;7.812;2023-04-03T01:54:15;102152.16;;;0.19;100.00
78198;BME280;67472;51.554;7.812;2023-04-03T01:57:00;102157.63;;;0.03;100.00
78198;BME280;67472;51.554;7.812;2023-04-03T01:59:45;102160.59;;;-0.22;100.00
78198;BME280;67472;51.554;7.812;2023-04-03T02:02:30;102160.13;;;-0.51;100.00
78198;BME280;67472;51.554;7.812;2023-04-03T02:05:15;102160.28;;;-0.63;100.00
78198;BME280;67472;51.554;7.812;2023-04-03T02:08:01;102174.16;;;-0.64;100.00
78198;BME280;67472;51.554;7.812;2023-04-03T02:10:48;102174.00;;;-0.53;100.00
78198;BME280;67472;51.554;7.812;2023-04-03T02:13:33;102180.81;;;-0.46;100.00
78198;BME280;67472;51.554;7.812;2023-04-03T02:16:18;102185.88;;;-0.36;100.00
78198;BME280;67472;51.554;7.812;2023-04-03T02:19:03;102191.03;;;-0.34;100.00
78198;BME280;67472;51.554;7.812;2023-04-03T02:21:49;102186.66;;;-0.31;100.00
78198;BME280;67472;51.554;7.812;2023-04-03T02:24:33;102196.16;;;-0.27;100.00
78198;BME280;67472;51.554;7.812;2023-04-03T02:27:19;102189.22;;;-0.26;100.00
78198;BME280;67472;51.554;7.812;2023-04-03T02:30:04;102188.34;;;-0.27;100.00
78198;BME280;67472;51.554;7.812;2023-04-03T02:32:49;102191.81;;;-0.26;100.00
78198;BME280;67472;51.554;7.812;2023-04-03T02:35:34;102190.09;;;-0.29;100.00
78198;BME280;67472;51.554;7.812;2023-04-03T02:38:22;102195.31;;;-0.30;100.00
78198;BME280;67472;51.554;7.812;2023-04-03T02:41:09;102188.31;;;-0.25;100.00
78198;BME280;67472;51.554;7.812;2023-04-03T02:43:54;102193.59;;;-0.30;100.00
78198;BME280;67472;51.554;7.812;2023-04-03T02:46:39;102191.91;;;-0.34;100.00
78198;BME280;67472;51.554;7.812;2023-04-03T02:49:24;102197.16;;;-0.38;100.00
78198;BME280;67472;51.554;7.812;2023-04-03T02:52:09;102192.75;;;-0.33;100.00
78198;BME280;67472;51.554;7.812;2023-04-03T02:54:55;102197.09;;;-0.34;100.00
78198;BME280;67472;51.554;7.812;2023-04-03T02:57:40;102197.06;;;-0.31;100.00
78198;BME280;67472;51.554;7.812;2023-04-03T03:00:25;102197.13;;;-0.35;100.00
78198;BME280;67472;51.554;7.812;2023-04-03T03:03:10;102195.28;;;-0.29;100.00
78198;BME280;67472;51.554;7.812;2023-04-03T03:06:06;102197.00;;;-0.28;100.00
78198;BME280;67472;51.554;7.812;2023-04-03T03:08:52;102202.19;;;-0.28;100.00
78198;BME280;67472;51.554;7.812;2023-04-03T03:11:37;102204.81;;;-0.28;100.00
78198;BME280;67472;51.554;7.812;2023-04-03T03:14:22;102199.59;;;-0.26;100.00
78198;BME280;67472;51.554;7.812;2023-04-03T03:17:07;102204.72;;;-0.23;100.00
78198;BME280;67472;51.554;7.812;2023-04-03T03:19:52;102202.13;;;-0.22;100.00
78198;BME280;67472;51.554;7.812;2023-04-03T03:22:37;102200.47;;;-0.27;100.00
78198;BME280;67472;51.554;7.812;2023-04-03T03:25:22;102198.78;;;-0.31;100.00
78198;BME280;67472;51.554;7.812;2023-04-03T03:28:07;102200.50;;;-0.32;100.00
78198;BME280;67472;51.554;7.812;2023-04-03T03:30:53;102197.94;;;-0.33;100.00
78198;BME280;67472;51.554;7.812;2023-04-03T03:33:38;102202.28;;;-0.32;100.00
78198;BME280;67472;51.554;7.812;2023-04-03T03:36:23;102207.47;;;-0.34;100.00
78198;BME280;67472;51.554;7.812;2023-04-03T03:39:09;102210.06;;;-0.32;100.00
78198;BME280;67472;51.554;7.812;2023-04-03T03:41:54;102203.19;;;-0.36;100.00
78198;BME280;67472;51.554;7.812;2023-04-03T03:44:39;102196.47;;;-0.49;100.00
78198;BME280;67472;51.554;7.812;2023-04-03T03:47:25;102200.81;;;-0.53;100.00
78198;BME280;67472;51.554;7.812;2023-04-03T03:50:10;102193.03;;;-0.54;100.00
78198;BME280;67472;51.554;7.812;2023-04-03T03:52:55;102203.38;;;-0.50;100.00
78198;BME280;67472;51.554;7.812;2023-04-03T03:55:40;102200.81;;;-0.54;100.00
78198;BME280;67472;51.554;7.812;2023-04-03T03:58:25;102195.72;;;-0.59;100.00
78198;BME280;67472;51.554;7.812;2023-04-03T04:01:10;102201.75;;;-0.60;100.00
78198;BME280;67472;51.554;7.812;2023-04-03T04:04:01;102206.06;;;-0.58;100.00
78198;BME280;67472;51.554;7.812;2023-04-03T04:06:49;102210.47;;;-0.66;100.00
78198;BME280;67472;51.554;7.812;2023-04-03T04:09:35;102207.06;;;-0.69;100.00
78198;BME280;67472;51.554;7.812;2023-04-03T04:12:20;102211.44;;;-0.73;100.00
78198;BME280;67472;51.554;7.812;2023-04-03T04:15:06;102220.94;;;-0.70;100.00
78198;BME280;67472;51.554;7.812;2023-04-03T04:17:52;102224.34;;;-0.70;100.00
78198;BME280;67472;51.554;7.812;2023-04-03T04:20:40;102223.53;;;-0.70;100.00
78198;BME280;67472;51.554;7.812;2023-04-03T04:23:26;102226.97;;;-0.71;100.00
78198;BME280;67472;51.554;7.812;2023-04-03T04:26:12;102221.72;;;-0.67;100.00
78198;BME280;67472;51.554;7.812;2023-04-03T04:28:57;102233.91;;;-0.72;100.00
78198;BME280;67472;51.554;7.812;2023-04-03T04:31:43;102219.22;;;-0.74;100.00
78198;BME280;67472;51.554;7.812;2023-04-03T04:34:28;102227.00;;;-0.74;100.00
78198;BME280;67472;51.554;7.812;2023-04-03T04:37:13;102231.28;;;-0.69;100.00
78198;BME280;67472;51.554;7.812;2023-04-03T04:39:58;102235.63;;;-0.72;100.00
78198;BME280;67472;51.554;7.812;2023-04-03T04:42:49;102234.06;;;-0.85;100.00
78198;BME280;67472;51.554;7.812;2023-04-03T04:45:34;102237.50;;;-0.83;100.00
78198;BME280;67472;51.554;7.812;2023-04-03T04:48:19;102241.88;;;-0.88;100.00
78198;BME280;67472;51.554;7.812;2023-04-03T04:51:04;102237.63;;;-0.94;100.00
78198;BME280;67472;51.554;7.812;2023-04-03T04:53:52;102236.81;;;-0.99;100.00
78198;BME280;67472;51.554;7.812;2023-04-03T04:56:38;102241.88;;;-0.90;100.00
78198;BME280;67472;51.554;7.812;2023-04-03T04:59:22;102246.25;;;-0.95;100.00
78198;BME280;67472;51.554;7.812;2023-04-03T05:02:09;102246.25;;;-0.93;100.00
78198;BME280;67472;51.554;7.812;2023-04-03T05:04:56;102251.44;;;-0.93;100.00
78198;BME280;67472;51.554;7.812;2023-04-03T05:07:45;102252.34;;;-0.96;100.00
78198;BME280;67472;51.554;7.812;2023-04-03T05:10:30;102248.06;;;-1.04;100.00
78198;BME280;67472;51.554;7.812;2023-04-03T05:13:15;102248.03;;;-1.00;100.00
78198;BME280;67472;51.554;7.812;2023-04-03T05:16:00;102263.56;;;-0.97;100.00
78198;BME280;67472;51.554;7.812;2023-04-03T05:18:46;102260.16;;;-0.99;100.00
78198;BME280;67472;51.554;7.812;2023-04-03T05:21:36;102256.59;;;-0.92;100.00
78198;BME280;67472;51.554;7.812;2023-04-03T05:24:26;102260.06;;;-0.91;100.00
78198;BME280;67472;51.554;7.812;2023-04-03T05:27:12;102268.66;;;-0.85;100.00
78198;BME280;67472;51.554;7.812;2023-04-03T05:30:01;102266.03;;;-0.83;100.00
78198;BME280;67472;51.554;7.812;2023-04-03T05:32:47;102272.94;;;-0.82;100.00
78198;BME280;67472;51.554;7.812;2023-04-03T05:35:41;102268.53;;;-0.73;100.00
78198;BME280;67472;51.554;7.812;2023-04-03T05:38:32;102274.53;;;-0.72;100.00
78198;BME280;67472;51.554;7.812;2023-04-03T05:41:17;102280.56;;;-0.69;100.00
78198;BME280;67472;51.554;7.812;2023-04-03T05:44:04;102282.25;;;-0.66;100.00
78198;BME280;67472;51.554;7.812;2023-04-03T05:46:49;102286.63;;;-0.68;100.00
78198;BME280;67472;51.554;7.812;2023-04-03T05:49:35;102290.00;;;-0.63;100.00
78198;BME280;67472;51.554;7.812;2023-04-03T05:52:23;102293.28;;;-0.46;100.00
78198;BME280;67472;51.554;7.812;2023-04-03T05:55:10;102285.41;;;-0.38;100.00
78198;BME280;67472;51.554;7.812;2023-04-03T05:57:55;102295.00;;;-0.45;100.00
78198;BME280;67472;51.554;7.812;2023-04-03T06:00:41;102296.75;;;-0.48;100.00
78198;BME280;67472;51.554;7.812;2023-04-03T06:03:25;102307.03;;;-0.39;100.00
78198;BME280;67472;51.554;7.812;2023-04-03T06:06:13;102306.06;;;-0.29;100.00
78198;BME280;67472;51.554;7.812;2023-04-03T06:08:58;102304.25;;;-0.21;100.00
78198;BME280;67472;51.554;7.812;2023-04-03T06:11:44;102313.59;;;-0.10;100.00
78198;BME280;67472;51.554;7.812;2023-04-03T06:14:29;102308.31;;;-0.02;100.00
78198;BME280;67472;51.554;7.812;2023-04-03T06:17:15;102321.88;;;0.20;100.00
78198;BME280;67472;51.554;7.812;2023-04-03T06:20:00;102307.13;;;0.23;100.00
78198;BME280;67472;51.554;7.812;2023-04-03T06:22:45;102308.56;;;0.41;100.00
78198;BME280;67472;51.554;7.812;2023-04-03T06:25:30;102308.44;;;0.50;100.00
78198;BME280;67472;51.554;7.812;2023-04-03T06:28:16;102306.56;;;0.60;100.00
78198;BME280;67472;51.554;7.812;2023-04-03T06:31:01;102307.19;;;0.74;100.00
78198;BME280;67472;51.554;7.812;2023-04-03T06:33:46;102299.63;;;0.58;100.00
78198;BME280;67472;51.554;7.812;2023-04-03T06:36:31;102309.19;;;0.56;100.00
78198;BME280;67472;51.554;7.812;2023-04-03T06:39:19;102299.38;;;0.74;100.00
78198;BME280;67472;51.554;7.812;2023-04-03T06:42:07;102300.00;;;0.88;100.00
78198;BME280;67472;51.554;7.812;2023-04-03T06:45:04;102306.94;;;0.89;100.00
78198;BME280;67472;51.554;7.812;2023-04-03T06:47:49;102300.84;;;0.91;100.00
78198;BME280;67472;51.554;7.812;2023-04-03T06:50:34;102306.59;;;1.08;100.00
78198;BME280;67472;51.554;7.812;2023-04-03T06:53:19;102307.25;;;1.20;100.00
78198;BME280;67472;51.554;7.812;2023-04-03T06:56:04;102315.81;;;1.28;100.00
78198;BME280;67472;51.554;7.812;2023-04-03T06:58:50;102314.03;;;1.30;100.00
78198;BME280;67472;51.554;7.812;2023-04-03T07:01:36;102317.50;;;1.30;100.00
78198;BME280;67472;51.554;7.812;2023-04-03T07:04:21;102313.97;;;1.33;100.00
78198;BME280;67472;51.554;7.812;2023-04-03T07:07:06;102312.22;;;1.33;100.00
78198;BME280;67472;51.554;7.812;2023-04-03T07:09:52;102310.22;;;1.47;100.00
78198;BME280;67472;51.554;7.812;2023-04-03T07:12:37;102315.16;;;1.62;100.00
78198;BME280;67472;51.554;7.812;2023-04-03T07:15:22;102317.75;;;1.62;100.00
78198;BME280;67472;51.554;7.812;2023-04-03T07:18:07;102316.72;;;1.71;100.00
78198;BME280;67472;51.554;7.812;2023-04-03T07:20:52;102310.78;;;1.63;100.00
78198;BME280;67472;51.554;7.812;2023-04-03T07:23:38;102315.78;;;1.74;100.00
78198;BME280;67472;51.554;7.812;2023-04-03T07:26:23;102316.34;;;1.88;100.00
78198;BME280;67472;51.554;7.812;2023-04-03T07:29:08;102315.13;;;2.04;100.00
78198;BME280;67472;51.554;7.812;2023-04-03T07:31:53;102316.28;;;2.31;100.00
78198;BME280;67472;51.554;7.812;2023-04-03T07:34:40;102316.34;;;2.29;100.00
78198;BME280;67472;51.554;7.812;2023-04-03T07:37:25;102316.22;;;2.34;100.00
78198;BME280;67472;51.554;7.812;2023-04-03T07:40:11;102318.75;;;2.37;100.00
78198;BME280;67472;51.554;7.812;2023-04-03T07:42:56;102305.97;;;2.26;100.00
78198;BME280;67472;51.554;7.812;2023-04-03T07:45:41;102318.00;;;2.32;100.00
78198;BME280;67472;51.554;7.812;2023-04-03T07:48:27;102318.91;;;2.31;100.00
78198;BME280;67472;51.554;7.812;2023-04-03T07:51:12;102316.97;;;2.39;100.00
78198;BME280;67472;51.554;7.812;2023-04-03T07:53:58;102309.91;;;2.44;100.00
78198;BME280;67472;51.554;7.812;2023-04-03T07:56:43;102311.88;;;2.34;100.00
78198;BME280;67472;51.554;7.812;2023-04-03T07:59:28;102306.91;;;2.60;100.00
78198;BME280;67472;51.554;7.812;2023-04-03T08:02:13;102305.47;;;2.84;100.00
78198;BME280;67472;51.554;7.812;2023-04-03T08:04:58;102299.09;;;2.96;100.00
78198;BME280;67472;51.554;7.812;2023-04-03T08:07:43;102290.25;;;3.00;100.00
78198;BME280;67472;51.554;7.812;2023-04-03T08:10:32;102290.81;;;2.78;100.00
78198;BME280;67472;51.554;7.812;2023-04-03T08:13:18;102301.34;;;2.75;100.00
78198;BME280;67472;51.554;7.812;2023-04-03T08:16:11;102305.38;;;2.87;100.00
78198;BME280;67472;51.554;7.812;2023-04-03T08:18:56;102296.53;;;3.26;100.00
78198;BME280;67472;51.554;7.812;2023-04-03T08:21:42;102301.75;;;3.57;100.00
78198;BME280;67472;51.554;7.812;2023-04-03T08:24:26;102295.72;;;3.55;100.00
78198;BME280;67472;51.554;7.812;2023-04-03T08:27:11;102281.94;;;3.50;100.00
78198;BME280;67472;51.554;7.812;2023-04-03T08:29:56;102280.13;;;3.52;100.00
78198;BME280;67472;51.554;7.812;2023-04-03T08:32:41;102282.56;;;3.60;100.00
78198;BME280;67472;51.554;7.812;2023-04-03T08:35:28;102271.31;;;3.56;100.00
78198;BME280;67472;51.554;7.812;2023-04-03T08:38:13;102273.91;;;3.87;100.00
78198;BME280;67472;51.554;7.812;2023-04-03T08:41:30;102276.78;;;4.07;100.00
78198;BME280;67472;51.554;7.812;2023-04-03T08:44:31;102267.72;;;3.89;100.00
78198;BME280;67472;51.554;7.812;2023-04-03T08:50:19;102246.69;;;3.94;100.00
78198;BME280;67472;51.554;7.812;2023-04-03T08:53:14;102252.81;;;3.93;100.00
78198;BME280;67472;51.554;7.812;2023-04-03T08:56:03;102250.91;;;3.98;100.00
78198;BME280;67472;51.554;7.812;2023-04-03T08:58:56;102250.09;;;3.96;100.00
78198;BME280;67472;51.554;7.812;2023-04-03T09:01:43;102264.44;;;4.38;100.00
78198;BME280;67472;51.554;7.812;2023-04-03T09:04:31;102231.59;;;4.30;100.00
78198;BME280;67472;51.554;7.812;2023-04-03T09:07:25;102239.91;;;4.69;100.00
78198;BME280;67472;51.554;7.812;2023-04-03T09:10:14;102236.22;;;4.49;100.00
78198;BME280;67472;51.554;7.812;2023-04-03T09:13:05;102238.00;;;4.47;100.00
78198;BME280;67472;51.554;7.812;2023-04-03T09:15:53;102233.94;;;4.65;100.00
78198;BME280;67472;51.554;7.812;2023-04-03T09:18:42;102234.31;;;4.79;100.00
78198;BME280;67472;51.554;7.812;2023-04-03T09:21:35;102236.66;;;5.13;100.00
78198;BME280;67472;51.554;7.812;2023-04-03T09:24:22;102232.56;;;5.29;100.00
78198;BME280;67472;51.554;7.812;2023-04-03T09:27:10;102224.03;;;5.24;98.72
78198;BME280;67472;51.554;7.812;2023-04-03T09:29:56;102235.13;;;5.06;96.72
78198;BME280;67472;51.554;7.812;2023-04-03T09:32:45;102240.94;;;5.14;96.38
78198;BME280;67472;51.554;7.812;2023-04-03T09:35:35;102243.97;;;5.28;95.48
78198;BME280;67472;51.554;7.812;2023-04-03T09:38:21;102242.78;;;5.60;96.13
78198;BME280;67472;51.554;7.812;2023-04-03T09:41:15;102234.94;;;5.60;96.10
78198;BME280;67472;51.554;7.812;2023-04-03T09:44:00;102233.31;;;5.56;92.64
78198;BME280;67472;51.554;7.812;2023-04-03T09:46:46;102204.84;;;5.47;88.69
78198;BME280;67472;51.554;7.812;2023-04-03T09:49:31;102213.59;;;5.46;88.98
78198;BME280;67472;51.554;7.812;2023-04-03T09:52:25;102223.75;;;5.55;88.07
78198;BME280;67472;51.554;7.812;2023-04-03T09:55:25;102204.09;;;5.66;88.26
78198;BME280;67472;51.554;7.812;2023-04-03T09:58:31;102209.66;;;5.81;88.04
78198;BME280;67472;51.554;7.812;2023-04-03T10:04:18;102192.56;;;5.94;86.79
78198;BME280;67472;51.554;7.812;2023-04-03T10:07:03;102187.03;;;6.23;86.47
78198;BME280;67472;51.554;7.812;2023-04-03T10:10:20;102187.72;;;6.48;84.95
78198;BME280;67472;51.554;7.812;2023-04-03T10:13:12;102148.28;;;6.30;80.05
78198;BME280;67472;51.554;7.812;2023-04-03T10:16:12;102148.00;;;6.36;79.77
78198;BME280;67472;51.554;7.812;2023-04-03T10:28:01;102101.19;;;6.86;73.19
78198;BME280;67472;51.554;7.812;2023-04-03T10:36:41;102073.53;;;6.78;70.64
78198;BME280;67472;51.554;7.812;2023-04-03T10:39:35;102078.91;;;6.75;70.27
78198;BME280;67472;51.554;7.812;2023-04-03T10:45:26;102053.44;;;6.77;68.59
78198;BME280;67472;51.554;7.812;2023-04-03T10:48:31;102075.69;;;7.08;69.22
78198;BME280;67472;51.554;7.812;2023-04-03T10:54:38;102074.31;;;7.18;69.02
78198;BME280;67472;51.554;7.812;2023-04-03T10:57:25;102107.69;;;7.53;70.10
78198;BME280;67472;51.554;7.812;2023-04-03T11:00:16;102077.94;;;7.53;68.12
78198;BME280;67472;51.554;7.812;2023-04-03T11:03:06;102026.19;;;6.99;65.33
78198;BME280;67472;51.554;7.812;2023-04-03T11:05:54;102046.53;;;6.94;66.32
78198;BME280;67472;51.554;7.812;2023-04-03T11:09:02;102074.34;;;6.99;67.76
78198;BME280;67472;51.554;7.812;2023-04-03T11:11:55;102070.13;;;7.51;67.72
78198;BME280;67472;51.554;7.812;2023-04-03T11:14:41;102084.53;;;7.97;68.96
78198;BME280;67472;51.554;7.812;2023-04-03T11:17:38;102037.44;;;7.57;65.39
78198;BME280;67472;51.554;7.812;2023-04-03T11:20:30;102006.09;;;7.16;63.24
78198;BME280;67472;51.554;7.812;2023-04-03T11:26:21;102038.47;;;7.71;64.74
78198;BME280;67472;51.554;7.812;2023-04-03T11:29:12;102031.03;;;7.96;64.74
78198;BME280;67472;51.554;7.812;2023-04-03T11:35:11;102007.81;;;7.70;62.70
78198;BME280;67472;51.554;7.812;2023-04-03T11:37:59;102007.19;;;7.29;62.79
78198;BME280;67472;51.554;7.812;2023-04-03T11:40:47;102021.06;;;7.33;63.26
78198;BME280;67472;51.554;7.812;2023-04-03T11:43:32;102022.38;;;7.42;63.38
78198;BME280;67472;51.554;7.812;2023-04-03T11:46:18;102030.31;;;7.40;64.70
78198;BME280;67472;51.554;7.812;2023-04-03T11:49:04;102030.78;;;7.12;64.41
78198;BME280;67472;51.554;7.812;2023-04-03T11:51:49;102040.69;;;7.62;64.74
78198;BME280;67472;51.554;7.812;2023-04-03T11:54:46;101973.53;;;7.55;61.02
78198;BME280;67472;51.554;7.812;2023-04-03T12:00:50;101986.88;;;7.86;61.64
78198;BME280;67472;51.554;7.812;2023-04-03T12:09:33;101980.13;;;8.15;61.44
78198;BME280;67472;51.554;7.812;2023-04-03T12:12:37;101961.13;;;8.42;60.48
78198;BME280;67472;51.554;7.812;2023-04-03T12:15:26;101967.84;;;8.48;61.38
78198;BME280;67472;51.554;7.812;2023-04-03T12:36:11;101952.13;;;7.96;59.55
78198;BME280;67472;51.554;7.812;2023-04-03T12:39:09;101974.28;;;8.25;61.74
78198;BME280;67472;51.554;7.812;2023-04-03T12:42:21;101963.09;;;8.05;60.94
78198;BME280;67472;51.554;7.812;2023-04-03T12:45:20;101965.69;;;8.22;61.56
78198;BME280;67472;51.554;7.812;2023-04-03T12:48:14;101966.44;;;8.74;61.96
78198;BME280;67472;51.554;7.812;2023-04-03T12:50:59;101946.56;;;8.84;60.26
78198;BME280;67472;51.554;7.812;2023-04-03T12:53:45;101976.13;;;8.73;62.74
78198;BME280;67472;51.554;7.812;2023-04-03T12:56:32;101966.81;;;8.50;61.71
78198;BME280;67472;51.554;7.812;2023-04-03T12:59:25;101975.69;;;8.65;62.60
78198;BME280;67472;51.554;7.812;2023-04-03T13:02:27;101935.28;;;7.83;60.95
78198;BME280;67472;51.554;7.812;2023-04-03T13:05:19;101957.28;;;7.47;61.94
78198;BME280;67472;51.554;7.812;2023-04-03T13:08:10;101967.19;;;7.93;62.69
78198;BME280;67472;51.554;7.812;2023-04-03T13:11:06;101981.63;;;8.36;63.74
78198;BME280;67472;51.554;7.812;2023-04-03T13:14:05;101945.16;;;8.30;62.11
78198;BME280;67472;51.554;7.812;2023-04-03T13:20:10;101941.28;;;8.84;60.52
78198;BME280;67472;51.554;7.812;2023-04-03T13:23:02;101954.91;;;9.07;61.30
78198;BME280;67472;51.554;7.812;2023-04-03T13:25:50;101956.00;;;9.19;61.31
78198;BME280;67472;51.554;7.812;2023-04-03T13:28:36;101928.59;;;9.06;59.80
78198;BME280;67472;51.554;7.812;2023-04-03T13:31:27;101923.00;;;8.65;58.58
78198;BME280;67472;51.554;7.812;2023-04-03T13:34:19;101948.47;;;8.49;59.87
78198;BME280;67472;51.554;7.812;2023-04-03T13:37:05;101974.00;;;8.64;61.13
78198;BME280;67472;51.554;7.812;2023-04-03T13:43:02;101936.25;;;8.48;58.42
78198;BME280;67472;51.554;7.812;2023-04-03T13:48:47;101955.56;;;8.31;60.23
78198;BME280;67472;51.554;7.812;2023-04-03T13:51:38;101950.22;;;8.16;59.96
78198;BME280;67472;51.554;7.812;2023-04-03T13:54:36;101968.59;;;8.00;60.83
78198;BME280;67472;51.554;7.812;2023-04-03T13:57:22;101987.09;;;8.33;62.25
78198;BME280;67472;51.554;7.812;2023-04-03T14:03:31;101978.47;;;8.62;62.35
78198;BME280;67472;51.554;7.812;2023-04-03T14:06:16;101948.25;;;9.00;60.38
78198;BME280;67472;51.554;7.812;2023-04-03T14:09:02;101963.38;;;9.28;60.87
78198;BME280;67472;51.554;7.812;2023-04-03T14:11:50;101954.63;;;9.12;61.41
78198;BME280;67472;51.554;7.812;2023-04-03T14:14:36;101955.06;;;9.04;61.11
78198;BME280;67472;51.554;7.812;2023-04-03T14:17:25;101965.19;;;8.96;61.50
78198;BME280;67472;51.554;7.812;2023-04-03T14:20:19;101937.69;;;8.21;60.17
78198;BME280;67472;51.554;7.812;2023-04-03T14:23:05;101965.25;;;8.64;61.96
78198;BME280;67472;51.554;7.812;2023-04-03T14:25:50;101966.97;;;8.96;62.99
78198;BME280;67472;51.554;7.812;2023-04-03T14:28:35;101946.75;;;8.96;60.93
78198;BME280;67472;51.554;7.812;2023-04-03T14:31:22;101920.13;;;8.85;58.85
78198;BME280;67472;51.554;7.812;2023-04-03T14:34:07;101899.78;;;9.03;57.69
78198;BME280;67472;51.554;7.812;2023-04-03T14:36:52;101906.00;;;8.39;58.31
78198;BME280;67472;51.554;7.812;2023-04-03T14:39:37;101908.06;;;8.50;58.98
78198;BME280;67472;51.554;7.812;2023-04-03T14:42:28;101931.94;;;8.78;60.22
78198;BME280;67472;51.554;7.812;2023-04-03T14:45:15;101902.94;;;8.14;59.00
78198;BME280;67472;51.554;7.812;2023-04-03T14:48:00;101915.19;;;8.64;59.13
78198;BME280;67472;51.554;7.812;2023-04-03T14:50:51;101907.97;;;8.51;59.40
78198;BME280;67472;51.554;7.812;2023-04-03T14:53:37;101918.59;;;8.50;60.41
78198;BME280;67472;51.554;7.812;2023-04-03T14:56:27;101907.47;;;8.61;59.13
78198;BME280;67472;51.554;7.812;2023-04-03T14:59:14;101934.31;;;8.67;61.04
78198;BME280;67472;51.554;7.812;2023-04-03T15:01:59;101917.97;;;8.45;59.99
78198;BME280;67472;51.554;7.812;2023-04-03T15:04:44;101892.94;;;8.21;58.29
78198;BME280;67472;51.554;7.812;2023-04-03T15:07:35;101900.28;;;8.31;58.83
78198;BME280;67472;51.554;7.812;2023-04-03T15:10:26;101897.97;;;8.25;58.83
78198;BME280;67472;51.554;7.812;2023-04-03T15:13:12;101920.75;;;8.42;60.89
78198;BME280;67472;51.554;7.812;2023-04-03T15:15:56;101900.13;;;8.34;59.91
78198;BME280;67472;51.554;7.812;2023-04-03T15:18:42;101908.41;;;8.44;60.33
78198;BME280;67472;51.554;7.812;2023-04-03T15:21:28;101922.75;;;8.54;61.83
78198;BME280;67472;51.554;7.812;2023-04-03T15:24:13;101929.84;;;8.36;61.57
78198;BME280;67472;51.554;7.812;2023-04-03T15:26:59;101927.66;;;8.12;61.33
78198;BME280;67472;51.554;7.812;2023-04-03T15:29:45;101921.72;;;8.41;60.35
78198;BME280;67472;51.554;7.812;2023-04-03T15:32:30;101903.75;;;8.65;58.83
78198;BME280;67472;51.554;7.812;2023-04-03T15:35:16;101889.34;;;8.39;58.71
78198;BME280;67472;51.554;7.812;2023-04-03T15:38:01;101900.78;;;8.05;59.28
78198;BME280;67472;51.554;7.812;2023-04-03T15:40:46;101904.88;;;8.11;60.34
78198;BME280;67472;51.554;7.812;2023-04-03T15:43:32;101904.75;;;8.46;59.74
78198;BME280;67472;51.554;7.812;2023-04-03T15:46:18;101903.47;;;8.21;59.47
78198;BME280;67472;51.554;7.812;2023-04-03T15:49:04;101918.03;;;8.28;59.97
78198;BME280;67472;51.554;7.812;2023-04-03T15:51:49;101901.00;;;8.18;59.57
78198;BME280;67472;51.554;7.812;2023-04-03T15:54:33;101921.41;;;8.47;60.99
78198;BME280;67472;51.554;7.812;2023-04-03T15:57:19;101912.09;;;8.07;59.53